Ana Sayfa
METAR-TAF:

METAR-TAF

Havaalanları :

Brown Field Municipal Airport

San Diego, Kaliforniya, Amerika Birleşik Devletleri

Enlem: 32-34-31N, Boylam: 116-59-35W, yükseklik: 164 m

Güncel hava durumu gözlemi

Rapor saat 22:53 UTC de 41 dakika önce yapıldı.
Rüzgar değişken yönden 6 kt
Sıcaklık 31°C
Nem 38%
Basınç 1014 hPa
Görüş mesafesi: 16.1 km
Açık gökyüzü

METAR: KSDM 252253Z VRB06KT 10SM CLR 31/15 A2993 RMK AO2 SLP130 T03060150

Saat: 16:34 (23:34 UTC)


TAF: eksik

4.000'den fazla havaalanı için hava durumu gözlemleri ve tahminleri (METAR ve TAF raporları).

Kullanılabilir istasyonlar harita üzerinde sarı ve kırmızı noktalarla gösterilir.

İstasyonun adını görmek için fareyi noktanın üzerinde gezdirin.

Sonrasında hava gözlem ve tahminlerini görmek için tıklayın.

Haritayı değiştirmek için: yaklaştırmak için siyah artı işaretli yeşil düğmeye ve uzaklaştırmak için de eksi işaretli düğmeye hızla tıklayın; bitişik haritalar için yeşil okları kullanın.


METAR-TAF: